createdAt,value
2023-08-29T00:00:47.077Z,0.00
2023-08-29T00:01:47.147Z,0.00
2023-08-29T00:02:47.052Z,0.00
2023-08-29T00:03:47.114Z,0.00
2023-08-29T00:04:46.984Z,0.00
2023-08-29T00:05:47.055Z,0.00
2023-08-29T00:06:46.947Z,0.00
2023-08-29T00:07:46.989Z,0.00
2023-08-29T00:08:46.901Z,0.00
2023-08-29T00:09:46.977Z,0.00
2023-08-29T00:10:46.869Z,0.00
2023-08-29T00:11:46.904Z,0.00
2023-08-29T00:12:46.809Z,0.00
2023-08-29T00:13:46.840Z,0.00
2023-08-29T00:14:46.768Z,0.00
2023-08-29T00:15:46.816Z,0.00
2023-08-29T00:16:46.726Z,0.00
2023-08-29T00:17:46.783Z,0.00
2023-08-29T00:18:46.901Z,0.00
2023-08-29T00:19:46.751Z,0.00
2023-08-29T00:20:46.641Z,0.00
2023-08-29T00:21:46.653Z,0.00
2023-08-29T00:22:46.608Z,0.00
2023-08-29T00:23:46.672Z,0.00
2023-08-29T00:24:46.561Z,0.00
2023-08-29T00:25:46.584Z,0.00
2023-08-29T00:26:46.519Z,0.00
2023-08-29T00:27:46.601Z,0.00
2023-08-29T00:28:46.472Z,0.00
2023-08-29T00:29:46.520Z,0.00
2023-08-29T00:30:46.433Z,0.00
2023-08-29T00:31:46.439Z,0.00
2023-08-29T00:32:46.450Z,0.00
2023-08-29T00:33:46.436Z,0.00
2023-08-29T00:34:46.342Z,0.00
2023-08-29T00:35:46.350Z,0.00
2023-08-29T00:36:46.306Z,0.00
2023-08-29T00:37:46.369Z,0.00
2023-08-29T00:38:46.262Z,0.00
2023-08-29T00:39:46.277Z,0.00
2023-08-29T00:40:46.229Z,0.00
2023-08-29T00:41:46.292Z,0.00
2023-08-29T00:42:46.177Z,0.00
2023-08-29T00:43:46.201Z,0.00
2023-08-29T00:44:46.138Z,0.00
2023-08-29T00:45:46.150Z,0.00
2023-08-29T00:46:46.095Z,0.00
2023-08-29T00:47:46.171Z,0.00
2023-08-29T00:48:46.041Z,0.00
2023-08-29T00:49:46.046Z,0.00
2023-08-29T00:50:46.015Z,0.00
2023-08-29T00:51:46.061Z,0.00
2023-08-29T00:52:45.956Z,0.00
2023-08-29T00:53:45.975Z,0.00
2023-08-29T00:54:45.917Z,0.00
2023-08-29T00:55:45.984Z,0.00
2023-08-29T00:56:45.872Z,0.00
2023-08-29T00:57:45.905Z,0.00
2023-08-29T00:58:45.820Z,0.00
2023-08-29T00:59:45.823Z,0.00
2023-08-29T01:00:45.788Z,0.00
2023-08-29T01:01:45.858Z,0.00
2023-08-29T01:02:45.787Z,0.00
2023-08-29T01:03:45.793Z,0.00
2023-08-29T01:04:45.696Z,0.00
2023-08-29T01:05:45.758Z,0.00
2023-08-29T01:06:45.655Z,0.00
2023-08-29T01:07:45.677Z,0.00
2023-08-29T01:08:45.607Z,0.00
2023-08-29T01:09:45.682Z,0.00
2023-08-29T01:10:45.561Z,0.00
2023-08-29T01:11:45.601Z,0.00
2023-08-29T01:12:45.524Z,0.00
2023-08-29T01:13:45.506Z,0.00
2023-08-29T01:14:45.474Z,0.00
2023-08-29T01:15:45.539Z,0.00
2023-08-29T01:16:45.439Z,0.00
2023-08-29T01:17:45.476Z,0.00
2023-08-29T01:18:45.396Z,0.00
2023-08-29T01:19:45.447Z,0.00
2023-08-29T01:20:45.348Z,0.00
2023-08-29T01:21:45.360Z,0.00
2023-08-29T01:22:45.300Z,0.00
2023-08-29T01:23:45.386Z,0.00
2023-08-29T01:24:45.260Z,0.00
2023-08-29T01:25:45.286Z,0.00
2023-08-29T01:26:45.216Z,0.00
2023-08-29T01:27:45.206Z,0.00
2023-08-29T01:28:45.222Z,0.00
2023-08-29T01:29:45.205Z,0.00
2023-08-29T01:30:45.126Z,0.00
2023-08-29T01:31:45.145Z,0.00
2023-08-29T01:32:45.124Z,0.00
2023-08-29T01:33:45.136Z,0.00
2023-08-29T01:34:45.031Z,0.00
2023-08-29T01:35:45.056Z,0.00
2023-08-29T01:36:44.978Z,0.00
2023-08-29T01:37:45.069Z,0.00
2023-08-29T01:38:44.942Z,0.00
2023-08-29T01:39:44.979Z,0.00
2023-08-29T01:40:44.897Z,0.00
2023-08-29T01:41:44.894Z,0.00
2023-08-29T01:42:44.854Z,0.00
2023-08-29T01:43:44.907Z,0.00
2023-08-29T01:44:44.812Z,0.00
2023-08-29T01:45:44.942Z,0.00
2023-08-29T01:46:44.766Z,0.00
2023-08-29T01:47:44.872Z,0.00
2023-08-29T01:48:44.719Z,0.00
2023-08-29T01:49:44.743Z,0.00
2023-08-29T01:50:44.681Z,0.00
2023-08-29T01:51:44.755Z,0.00
2023-08-29T01:52:44.634Z,0.00
2023-08-29T01:53:44.679Z,0.00
2023-08-29T01:54:44.602Z,0.00
2023-08-29T01:55:44.593Z,0.00
2023-08-29T01:56:44.545Z,0.00
2023-08-29T01:57:44.614Z,0.00
2023-08-29T01:58:44.498Z,0.00
2023-08-29T01:59:44.507Z,0.00
2023-08-29T02:00:44.442Z,0.00
2023-08-29T02:01:44.589Z,0.00
2023-08-29T02:02:44.408Z,0.00
2023-08-29T02:03:44.452Z,0.00
2023-08-29T02:04:44.371Z,0.00
2023-08-29T02:05:44.347Z,0.00
2023-08-29T02:06:44.325Z,0.00
2023-08-29T02:07:44.362Z,0.00
2023-08-29T02:08:44.272Z,0.00
2023-08-29T02:09:44.275Z,0.00
2023-08-29T02:10:44.233Z,0.00
2023-08-29T02:11:44.296Z,0.00
2023-08-29T02:12:44.185Z,0.00
2023-08-29T02:13:44.203Z,0.00
2023-08-29T02:14:44.146Z,0.00
2023-08-29T02:15:44.132Z,0.00
2023-08-29T02:16:44.134Z,0.00
2023-08-29T02:17:44.168Z,0.00
2023-08-29T02:18:44.051Z,0.00
2023-08-29T02:19:44.055Z,0.00
2023-08-29T02:20:44.008Z,0.00
2023-08-29T02:21:44.055Z,0.00
2023-08-29T02:22:43.957Z,0.00
2023-08-29T02:23:43.967Z,0.00
2023-08-29T02:24:43.977Z,0.00
2023-08-29T02:25:43.992Z,0.00
2023-08-29T02:26:43.866Z,0.00
2023-08-29T02:27:43.894Z,0.00
2023-08-29T02:28:43.817Z,0.00
2023-08-29T02:29:43.918Z,0.00
2023-08-29T02:30:43.810Z,0.00
2023-08-29T02:31:43.843Z,0.00
2023-08-29T02:32:43.741Z,0.00
2023-08-29T02:33:43.731Z,0.00
2023-08-29T02:34:43.684Z,0.00
2023-08-29T02:35:43.745Z,0.00
2023-08-29T02:36:43.649Z,0.00
2023-08-29T02:37:43.659Z,0.00
2023-08-29T02:38:43.599Z,0.00
2023-08-29T02:39:43.671Z,0.00
2023-08-29T02:40:43.553Z,0.00
2023-08-29T02:41:43.585Z,0.00
2023-08-29T02:42:43.493Z,0.00
2023-08-29T02:43:43.495Z,0.00
2023-08-29T02:44:43.475Z,0.00
2023-08-29T02:45:43.512Z,0.00
2023-08-29T02:46:43.451Z,0.00
2023-08-29T02:47:43.471Z,0.00
2023-08-29T02:48:43.368Z,0.00
2023-08-29T02:49:43.450Z,0.00
2023-08-29T02:50:43.330Z,0.00
2023-08-29T02:51:43.362Z,0.00
2023-08-29T02:52:43.267Z,0.00
2023-08-29T02:53:43.262Z,0.00
2023-08-29T02:54:43.244Z,0.00
2023-08-29T02:55:43.297Z,0.00
2023-08-29T02:56:43.185Z,0.00
2023-08-29T02:57:43.206Z,0.00
2023-08-29T02:58:43.177Z,0.00
2023-08-29T02:59:43.220Z,0.00
2023-08-29T03:00:43.109Z,0.00
2023-08-29T03:01:43.133Z,0.00
2023-08-29T03:02:43.113Z,0.00
2023-08-29T03:03:43.127Z,0.00
2023-08-29T03:04:43.024Z,0.00
2023-08-29T03:05:43.069Z,0.00
2023-08-29T03:06:42.954Z,0.00
2023-08-29T03:07:42.958Z,0.00
2023-08-29T03:08:42.917Z,0.00
2023-08-29T03:09:42.974Z,0.00
2023-08-29T03:10:42.877Z,0.00
2023-08-29T03:11:42.884Z,0.00
2023-08-29T03:12:42.810Z,0.00
2023-08-29T03:13:42.899Z,0.00
2023-08-29T03:14:42.780Z,0.00
2023-08-29T03:15:42.822Z,0.00
2023-08-29T03:16:42.766Z,0.00
2023-08-29T03:17:42.761Z,0.00
2023-08-29T03:18:42.684Z,0.00
2023-08-29T03:19:42.739Z,0.00
2023-08-29T03:20:42.647Z,0.00
2023-08-29T03:21:42.655Z,0.00
2023-08-29T03:22:42.597Z,0.00
2023-08-29T03:23:42.665Z,0.00
2023-08-29T03:24:42.553Z,0.00
2023-08-29T03:25:42.601Z,0.00
2023-08-29T03:26:42.507Z,0.00
2023-08-29T03:27:42.515Z,0.00
2023-08-29T03:28:42.460Z,0.00
2023-08-29T03:29:42.504Z,0.00
2023-08-29T03:30:42.413Z,0.00
2023-08-29T03:31:42.414Z,0.00
2023-08-29T03:32:42.431Z,0.00
2023-08-29T03:33:42.522Z,0.00
2023-08-29T03:34:42.318Z,0.00
2023-08-29T03:35:42.358Z,0.00
2023-08-29T03:36:42.280Z,0.00
2023-08-29T03:37:42.253Z,0.00
2023-08-29T03:38:42.234Z,0.00
2023-08-29T03:39:42.269Z,0.00
2023-08-29T03:40:42.175Z,0.00
2023-08-29T03:41:42.183Z,0.00
2023-08-29T03:42:42.146Z,0.00
2023-08-29T03:43:42.198Z,0.00
2023-08-29T03:44:42.103Z,0.00
2023-08-29T03:45:42.139Z,0.00
2023-08-29T03:46:42.043Z,0.00
2023-08-29T03:47:42.142Z,0.00
2023-08-29T03:48:42.047Z,0.00
2023-08-29T03:49:42.036Z,0.00
2023-08-29T03:50:41.952Z,0.00
2023-08-29T03:51:41.947Z,0.00
2023-08-29T03:52:41.915Z,0.00
2023-08-29T03:53:41.961Z,0.00
2023-08-29T03:54:41.874Z,0.00
2023-08-29T03:55:41.876Z,0.00
2023-08-29T03:56:41.830Z,0.00
2023-08-29T03:57:41.894Z,0.00
2023-08-29T03:58:41.770Z,0.00
2023-08-29T03:59:41.827Z,0.00
2023-08-29T04:00:41.763Z,0.00
2023-08-29T04:01:41.717Z,0.00
2023-08-29T04:02:41.848Z,0.00
2023-08-29T04:03:42.078Z,0.00
2023-08-29T04:04:41.888Z,0.00
2023-08-29T04:05:41.757Z,0.00
2023-08-29T04:06:41.590Z,0.00
2023-08-29T04:07:41.661Z,0.00
2023-08-29T04:08:41.551Z,0.00
2023-08-29T04:09:41.621Z,0.00
2023-08-29T04:10:41.645Z,0.00
2023-08-29T04:11:41.484Z,0.00
2023-08-29T04:12:41.452Z,0.00
2023-08-29T04:13:41.496Z,0.00
2023-08-29T04:14:41.421Z,0.00
2023-08-29T04:15:41.410Z,0.00
2023-08-29T04:16:41.395Z,0.00
2023-08-29T04:17:41.448Z,0.00
2023-08-29T04:18:41.306Z,0.00
2023-08-29T04:19:41.336Z,0.00
2023-08-29T04:20:41.266Z,0.00
2023-08-29T04:21:41.357Z,0.00
2023-08-29T04:22:41.241Z,0.00
2023-08-29T04:23:41.263Z,0.00
2023-08-29T04:24:41.183Z,0.00
2023-08-29T04:25:41.194Z,0.00
2023-08-29T04:26:41.137Z,0.00
2023-08-29T04:27:41.189Z,0.00
2023-08-29T04:28:41.090Z,0.00
2023-08-29T04:29:41.119Z,0.00
2023-08-29T04:30:41.034Z,0.00
2023-08-29T04:31:41.213Z,0.00
2023-08-29T04:32:41.092Z,0.00
2023-08-29T04:33:41.031Z,0.00
2023-08-29T04:34:40.957Z,0.00
2023-08-29T04:35:40.944Z,0.00
2023-08-29T04:36:40.912Z,0.00
2023-08-29T04:37:40.960Z,0.00
2023-08-29T04:38:40.860Z,0.00
2023-08-29T04:39:40.870Z,0.00
2023-08-29T04:40:40.815Z,0.00
2023-08-29T04:41:40.898Z,0.00
2023-08-29T04:42:40.780Z,0.00
2023-08-29T04:43:40.803Z,0.00
2023-08-29T04:44:41.133Z,0.00
2023-08-29T04:45:40.764Z,0.00
2023-08-29T04:46:40.679Z,0.00
2023-08-29T04:47:40.794Z,0.00
2023-08-29T04:48:40.632Z,0.00
2023-08-29T04:49:40.635Z,0.00
2023-08-29T04:50:40.586Z,0.00
2023-08-29T04:51:40.647Z,0.00
2023-08-29T04:52:40.533Z,0.00
2023-08-29T04:53:40.565Z,0.00
2023-08-29T04:54:40.499Z,0.00
2023-08-29T04:55:40.473Z,0.00
2023-08-29T04:56:40.459Z,5.63
2023-08-29T04:57:40.487Z,5.63
2023-08-29T04:58:40.400Z,5.63
2023-08-29T04:59:40.399Z,5.63
2023-08-29T05:00:40.360Z,5.63
2023-08-29T05:01:40.443Z,5.63
2023-08-29T05:02:40.325Z,5.63
2023-08-29T05:03:40.363Z,5.63
2023-08-29T05:04:40.280Z,5.63
2023-08-29T05:05:40.344Z,5.63
2023-08-29T05:06:40.228Z,5.63
2023-08-29T05:07:40.274Z,11.25
2023-08-29T05:08:40.180Z,11.25
2023-08-29T05:09:40.201Z,11.25
2023-08-29T05:10:40.136Z,11.25
2023-08-29T05:11:40.180Z,11.25
2023-08-29T05:12:40.105Z,11.25
2023-08-29T05:13:40.146Z,11.25
2023-08-29T05:14:40.255Z,11.25
2023-08-29T05:15:43.040Z,11.25
2023-08-29T05:16:39.987Z,16.88
2023-08-29T05:17:40.036Z,16.88
2023-08-29T05:18:39.944Z,16.88
2023-08-29T05:19:40.046Z,16.88
2023-08-29T05:20:39.903Z,16.88
2023-08-29T05:21:39.947Z,16.88
2023-08-29T05:22:39.848Z,16.88
2023-08-29T05:23:39.870Z,22.50
2023-08-29T05:24:39.822Z,22.50
2023-08-29T05:25:39.871Z,22.50
2023-08-29T05:26:39.760Z,22.50
2023-08-29T05:27:39.808Z,22.50
2023-08-29T05:28:39.717Z,22.50
2023-08-29T05:29:39.805Z,22.50
2023-08-29T05:30:39.657Z,28.13
2023-08-29T05:31:39.806Z,28.13
2023-08-29T05:32:39.641Z,28.13
2023-08-29T05:33:39.627Z,28.13
2023-08-29T05:34:39.594Z,28.13
2023-08-29T05:35:39.657Z,28.13
2023-08-29T05:36:39.536Z,33.75
2023-08-29T05:37:39.563Z,33.75
2023-08-29T05:38:39.480Z,33.75
2023-08-29T05:39:39.574Z,33.75
2023-08-29T05:40:39.433Z,33.75
2023-08-29T05:41:39.476Z,33.75
2023-08-29T05:42:39.402Z,39.38
2023-08-29T05:43:39.398Z,39.38
2023-08-29T05:44:39.360Z,39.38
2023-08-29T05:45:39.418Z,39.38
2023-08-29T05:46:39.321Z,39.38
2023-08-29T05:47:39.428Z,39.38
2023-08-29T05:48:39.263Z,39.38
2023-08-29T05:49:39.333Z,45.00
2023-08-29T05:50:39.220Z,45.00
2023-08-29T05:51:39.248Z,45.00
2023-08-29T05:52:39.176Z,45.00
2023-08-29T05:53:39.187Z,45.00
2023-08-29T05:54:39.135Z,45.00
2023-08-29T05:55:39.187Z,50.63
2023-08-29T05:56:39.108Z,50.63
2023-08-29T05:57:39.088Z,50.63
2023-08-29T05:58:39.040Z,50.63
2023-08-29T05:59:39.099Z,50.63
2023-08-29T06:00:39.010Z,50.63
2023-08-29T06:01:39.015Z,50.63
2023-08-29T06:02:38.939Z,56.25
2023-08-29T06:03:38.963Z,56.25
2023-08-29T06:04:38.926Z,56.25
2023-08-29T06:05:38.955Z,56.25
2023-08-29T06:06:38.838Z,56.25
2023-08-29T06:07:38.857Z,61.88
2023-08-29T06:08:38.795Z,61.88
2023-08-29T06:09:38.879Z,61.88
2023-08-29T06:10:38.758Z,61.88
2023-08-29T06:11:38.784Z,61.88
2023-08-29T06:12:38.703Z,61.88
2023-08-29T06:13:38.796Z,61.88
2023-08-29T06:14:38.691Z,61.88
2023-08-29T06:15:38.710Z,61.88
2023-08-29T06:16:38.643Z,67.50
2023-08-29T06:17:38.699Z,67.50
2023-08-29T06:18:38.590Z,67.50
2023-08-29T06:19:38.637Z,67.50
2023-08-29T06:20:38.530Z,73.13
2023-08-29T06:21:38.562Z,73.13
2023-08-29T06:22:38.481Z,73.13
2023-08-29T06:23:38.604Z,73.13
2023-08-29T06:24:38.464Z,78.75
2023-08-29T06:25:38.492Z,78.75
2023-08-29T06:26:38.402Z,78.75
2023-08-29T06:27:38.390Z,78.75
2023-08-29T06:28:38.357Z,84.38
2023-08-29T06:29:38.407Z,84.38
2023-08-29T06:30:38.348Z,84.38
2023-08-29T06:31:38.335Z,84.38
2023-08-29T06:32:38.305Z,84.38
2023-08-29T06:33:38.342Z,90.00
2023-08-29T06:34:38.234Z,90.00
2023-08-29T06:35:38.278Z,90.00
2023-08-29T06:36:38.185Z,90.00
2023-08-29T06:37:38.303Z,95.63
2023-08-29T06:38:38.138Z,95.63
2023-08-29T06:39:38.159Z,95.63
2023-08-29T06:40:38.125Z,95.63
2023-08-29T06:41:38.176Z,101.25
2023-08-29T06:42:38.037Z,101.25
2023-08-29T06:43:38.091Z,101.25
2023-08-29T06:44:38.001Z,101.25
2023-08-29T06:45:38.101Z,106.88
2023-08-29T06:46:38.032Z,106.88
2023-08-29T06:47:38.140Z,106.88
2023-08-29T06:48:37.911Z,106.88
2023-08-29T06:49:38.027Z,106.88
2023-08-29T06:50:38.014Z,112.50
2023-08-29T06:51:37.936Z,112.50
2023-08-29T06:52:37.819Z,112.50
2023-08-29T06:53:37.967Z,112.50
2023-08-29T06:54:37.786Z,118.13
2023-08-29T06:55:37.872Z,118.13
2023-08-29T06:56:37.727Z,118.13
2023-08-29T06:57:37.897Z,118.13
2023-08-29T06:58:37.681Z,123.75
2023-08-29T06:59:37.804Z,123.75
2023-08-29T07:00:37.679Z,123.75
2023-08-29T07:01:37.815Z,123.75
2023-08-29T07:02:37.669Z,123.75
2023-08-29T07:03:37.819Z,118.13
2023-08-29T07:04:37.694Z,118.13
2023-08-29T07:05:37.631Z,118.13
2023-08-29T07:06:37.504Z,112.50
2023-08-29T07:07:37.689Z,112.50
2023-08-29T07:08:37.456Z,106.88
2023-08-29T07:09:37.558Z,106.88
2023-08-29T07:10:37.414Z,101.25
2023-08-29T07:11:37.584Z,101.25
2023-08-29T07:12:37.398Z,95.63
2023-08-29T07:13:37.510Z,95.63
2023-08-29T07:14:37.338Z,95.63
2023-08-29T07:15:37.497Z,95.63
2023-08-29T07:16:37.301Z,95.63
2023-08-29T07:17:37.435Z,95.63
2023-08-29T07:18:37.252Z,95.63
2023-08-29T07:19:37.471Z,101.25
2023-08-29T07:20:37.206Z,101.25
2023-08-29T07:21:37.337Z,106.88
2023-08-29T07:22:37.155Z,106.88
2023-08-29T07:23:37.248Z,112.50
2023-08-29T07:24:37.114Z,112.50
2023-08-29T07:25:37.272Z,118.13
2023-08-29T07:26:37.054Z,123.75
2023-08-29T07:27:37.173Z,129.38
2023-08-29T07:28:37.012Z,129.38
2023-08-29T07:29:37.200Z,135.00
2023-08-29T07:30:37.022Z,135.00
2023-08-29T07:31:38.673Z,140.63
2023-08-29T07:32:37.006Z,146.25
2023-08-29T07:33:37.022Z,151.88
2023-08-29T07:34:36.910Z,151.88
2023-08-29T07:35:37.025Z,151.88
2023-08-29T07:36:36.845Z,151.88
2023-08-29T07:37:38.261Z,157.50
2023-08-29T07:38:36.801Z,157.50
2023-08-29T07:39:36.952Z,163.13
2023-08-29T07:40:36.817Z,163.13
2023-08-29T07:41:36.874Z,168.75
2023-08-29T07:42:36.713Z,174.38
2023-08-29T07:43:36.889Z,174.38
2023-08-29T07:44:36.676Z,180.00
2023-08-29T07:45:36.820Z,180.00
2023-08-29T07:46:36.689Z,185.63
2023-08-29T07:47:36.746Z,185.63
2023-08-29T07:48:36.587Z,191.25
2023-08-29T07:49:36.725Z,191.25
2023-08-29T07:50:36.545Z,191.25
2023-08-29T07:51:36.635Z,191.25
2023-08-29T07:52:36.595Z,196.88
2023-08-29T07:53:36.700Z,196.88
2023-08-29T07:54:36.509Z,196.88
2023-08-29T07:55:36.566Z,196.88
2023-08-29T07:56:36.417Z,196.88
2023-08-29T07:57:36.577Z,196.88
2023-08-29T07:58:36.463Z,202.50
2023-08-29T07:59:36.498Z,202.50
2023-08-29T08:00:36.321Z,208.13
2023-08-29T08:01:36.534Z,208.13
2023-08-29T08:02:36.312Z,213.75
2023-08-29T08:03:36.476Z,213.75
2023-08-29T08:04:36.248Z,219.38
2023-08-29T08:05:36.336Z,219.38
2023-08-29T08:06:36.218Z,219.38
2023-08-29T08:07:36.340Z,219.38
2023-08-29T08:08:36.162Z,225.00
2023-08-29T08:09:36.249Z,225.00
2023-08-29T08:10:36.123Z,225.00
2023-08-29T08:11:36.287Z,225.00
2023-08-29T08:12:36.079Z,230.63
2023-08-29T08:13:36.190Z,230.63
2023-08-29T08:14:36.041Z,236.25
2023-08-29T08:15:36.184Z,241.88
2023-08-29T08:16:36.061Z,236.25
2023-08-29T08:17:36.118Z,241.88
2023-08-29T08:18:35.956Z,241.88
2023-08-29T08:19:36.154Z,241.88
2023-08-29T08:20:35.918Z,241.88
2023-08-29T08:21:36.039Z,247.50
2023-08-29T08:22:35.874Z,247.50
2023-08-29T08:23:35.948Z,253.13
2023-08-29T08:24:35.834Z,253.13
2023-08-29T08:25:35.953Z,258.75
2023-08-29T08:26:35.783Z,258.75
2023-08-29T08:27:35.875Z,264.38
2023-08-29T08:28:35.744Z,264.38
2023-08-29T08:29:35.909Z,270.00
2023-08-29T08:30:35.710Z,270.00
2023-08-29T08:31:35.848Z,275.63
2023-08-29T08:32:35.656Z,275.63
2023-08-29T08:33:35.834Z,281.25
2023-08-29T08:34:35.627Z,281.25
2023-08-29T08:35:38.555Z,286.88
2023-08-29T08:36:35.579Z,286.88
2023-08-29T08:37:35.735Z,292.50
2023-08-29T08:38:35.558Z,298.13
2023-08-29T08:39:35.665Z,298.13
2023-08-29T08:40:35.505Z,303.75
2023-08-29T08:41:35.666Z,309.38
2023-08-29T08:42:35.459Z,309.38
2023-08-29T08:43:35.572Z,309.38
2023-08-29T08:44:35.422Z,315.00
2023-08-29T08:45:35.485Z,320.63
2023-08-29T08:46:35.387Z,320.63
2023-08-29T08:47:35.522Z,326.25
2023-08-29T08:48:35.342Z,331.88
2023-08-29T08:49:35.509Z,331.88
2023-08-29T08:50:35.301Z,337.50
2023-08-29T08:51:35.423Z,348.75
2023-08-29T08:52:35.264Z,348.75
2023-08-29T08:53:35.337Z,348.75
2023-08-29T08:54:35.219Z,348.75
2023-08-29T08:55:35.361Z,348.75
2023-08-29T08:56:35.169Z,354.38
2023-08-29T08:57:35.272Z,354.38
2023-08-29T08:58:35.137Z,354.38
2023-08-29T08:59:35.278Z,354.38
2023-08-29T09:00:35.094Z,354.38
2023-08-29T09:01:35.210Z,354.38
2023-08-29T09:02:35.046Z,354.38
2023-08-29T09:03:35.218Z,360.00
2023-08-29T09:04:35.046Z,354.38
2023-08-29T09:05:35.113Z,354.38
2023-08-29T09:06:34.981Z,348.75
2023-08-29T09:07:35.128Z,348.75
2023-08-29T09:08:34.956Z,348.75
2023-08-29T09:09:35.046Z,348.75
2023-08-29T09:10:34.907Z,348.75
2023-08-29T09:11:35.054Z,343.13
2023-08-29T09:12:34.862Z,337.50
2023-08-29T09:13:34.964Z,320.63
2023-08-29T09:14:34.825Z,315.00
2023-08-29T09:15:34.998Z,309.38
2023-08-29T09:16:34.799Z,298.13
2023-08-29T09:17:34.922Z,292.50
2023-08-29T09:18:34.744Z,275.63
2023-08-29T09:19:34.916Z,264.38
2023-08-29T09:20:34.715Z,253.13
2023-08-29T09:21:36.513Z,253.13
2023-08-29T09:22:34.669Z,247.50
2023-08-29T09:23:34.734Z,241.88
2023-08-29T09:24:34.635Z,241.88
2023-08-29T09:25:34.746Z,247.50
2023-08-29T09:26:34.586Z,253.13
2023-08-29T09:27:34.659Z,253.13
2023-08-29T09:28:34.557Z,253.13
2023-08-29T09:29:34.682Z,258.75
2023-08-29T09:30:34.515Z,258.75
2023-08-29T09:31:34.625Z,270.00
2023-08-29T09:32:34.480Z,270.00
2023-08-29T09:33:34.620Z,270.00
2023-08-29T09:34:34.441Z,275.63
2023-08-29T09:35:34.523Z,264.38
2023-08-29T09:36:34.398Z,258.75
2023-08-29T09:37:34.534Z,247.50
2023-08-29T09:38:34.360Z,241.88
2023-08-29T09:39:34.434Z,236.25
2023-08-29T09:40:40.861Z,230.63
2023-08-29T09:41:34.459Z,236.25
2023-08-29T09:42:34.288Z,241.88
2023-08-29T09:43:34.359Z,247.50
2023-08-29T09:44:34.264Z,258.75
2023-08-29T09:45:34.613Z,270.00
2023-08-29T09:46:34.215Z,281.25
2023-08-29T09:47:34.341Z,303.75
2023-08-29T09:48:34.163Z,326.25
2023-08-29T09:49:34.304Z,343.13
2023-08-29T09:50:34.136Z,348.75
2023-08-29T09:51:34.216Z,360.00
2023-08-29T09:52:34.101Z,376.88
2023-08-29T09:53:34.229Z,393.75
2023-08-29T09:54:34.065Z,399.38
2023-08-29T09:55:34.150Z,416.25
2023-08-29T09:56:34.023Z,427.50
2023-08-29T09:57:34.155Z,438.75
2023-08-29T09:58:33.982Z,444.38
2023-08-29T09:59:34.084Z,427.50
2023-08-29T10:00:33.948Z,427.50
2023-08-29T10:01:34.100Z,421.88
2023-08-29T10:02:33.964Z,405.00
2023-08-29T10:03:34.040Z,405.00
2023-08-29T10:04:33.881Z,382.50
2023-08-29T10:05:34.029Z,365.63
2023-08-29T10:06:33.838Z,343.13
2023-08-29T10:07:33.921Z,337.50
2023-08-29T10:08:33.801Z,309.38
2023-08-29T10:09:33.931Z,286.88
2023-08-29T10:10:33.765Z,264.38
2023-08-29T10:11:44.255Z,241.88
2023-08-29T10:12:33.735Z,208.13
2023-08-29T10:13:33.872Z,196.88
2023-08-29T10:14:33.694Z,196.88
2023-08-29T10:15:35.001Z,191.25
2023-08-29T10:16:33.814Z,191.25
2023-08-29T10:17:33.893Z,191.25
2023-08-29T10:18:33.653Z,196.88
2023-08-29T10:19:33.698Z,202.50
2023-08-29T10:20:33.593Z,219.38
2023-08-29T10:21:33.713Z,236.25
2023-08-29T10:22:33.552Z,253.13
2023-08-29T10:23:33.624Z,275.63
2023-08-29T10:24:33.518Z,309.38
2023-08-29T10:25:33.641Z,343.13
2023-08-29T10:26:33.482Z,376.88
2023-08-29T10:27:33.556Z,393.75
2023-08-29T10:28:33.445Z,427.50
2023-08-29T10:29:33.579Z,444.38
2023-08-29T10:30:33.411Z,455.63
2023-08-29T10:31:33.508Z,466.88
2023-08-29T10:32:33.488Z,455.63
2023-08-29T10:33:33.496Z,450.00
2023-08-29T10:34:33.338Z,461.25
2023-08-29T10:35:33.402Z,472.50
2023-08-29T10:36:33.295Z,455.63
2023-08-29T10:37:33.421Z,444.38
2023-08-29T10:38:33.261Z,433.13
2023-08-29T10:39:33.326Z,427.50
2023-08-29T10:40:33.224Z,416.25
2023-08-29T10:41:33.341Z,405.00
2023-08-29T10:42:33.188Z,399.38
2023-08-29T10:43:33.254Z,382.50
2023-08-29T10:44:33.157Z,376.88
2023-08-29T10:45:33.275Z,360.00
2023-08-29T10:46:33.165Z,365.63
2023-08-29T10:47:33.206Z,365.63
2023-08-29T10:48:33.086Z,365.63
2023-08-29T10:49:33.198Z,365.63
2023-08-29T10:50:33.049Z,376.88
2023-08-29T10:51:33.108Z,376.88
2023-08-29T10:52:33.020Z,354.38
2023-08-29T10:53:33.122Z,354.38
2023-08-29T10:54:32.986Z,343.13
2023-08-29T10:55:33.034Z,331.88
2023-08-29T10:56:32.965Z,320.63
2023-08-29T10:57:33.049Z,309.38
2023-08-29T10:58:47.856Z,309.38
2023-08-29T10:59:32.964Z,315.00
2023-08-29T11:00:32.925Z,309.38
2023-08-29T11:01:33.018Z,303.75
2023-08-29T11:02:33.123Z,292.50
2023-08-29T11:03:32.993Z,286.88
2023-08-29T11:04:38.665Z,281.25
2023-08-29T11:05:32.992Z,247.50
2023-08-29T11:06:32.781Z,253.13
2023-08-29T11:07:32.918Z,286.88
2023-08-29T11:08:32.751Z,264.38
2023-08-29T11:09:32.831Z,275.63
2023-08-29T11:10:32.716Z,303.75
2023-08-29T11:11:32.846Z,298.13
2023-08-29T11:12:32.730Z,303.75
2023-08-29T11:13:32.763Z,298.13
2023-08-29T11:14:32.656Z,292.50
2023-08-29T11:15:32.781Z,292.50
2023-08-29T11:16:32.632Z,286.88
2023-08-29T11:17:32.696Z,264.38
2023-08-29T11:18:32.576Z,270.00
2023-08-29T11:19:32.699Z,275.63
2023-08-29T11:20:32.543Z,270.00
2023-08-29T11:21:32.639Z,247.50
2023-08-29T11:22:32.643Z,247.50
2023-08-29T11:23:32.618Z,247.50
2023-08-29T11:24:32.477Z,253.13
2023-08-29T11:25:32.533Z,264.38
2023-08-29T11:26:32.434Z,275.63
2023-08-29T11:27:32.616Z,292.50
2023-08-29T11:28:32.410Z,309.38
2023-08-29T11:29:32.562Z,348.75
2023-08-29T11:30:43.412Z,365.63
2023-08-29T11:31:32.551Z,371.25
2023-08-29T11:32:32.348Z,388.13
2023-08-29T11:33:32.485Z,410.63
2023-08-29T11:34:32.309Z,438.75
2023-08-29T11:35:32.401Z,455.63
2023-08-29T11:36:32.281Z,517.50
2023-08-29T11:37:32.450Z,540.00
2023-08-29T11:38:32.243Z,545.63
2023-08-29T11:39:32.339Z,551.25
2023-08-29T11:40:38.444Z,556.88
2023-08-29T11:41:57.152Z,562.50
2023-08-29T11:42:56.643Z,568.13
2023-08-29T11:43:56.566Z,562.50
2023-08-29T11:44:45.426Z,551.25
2023-08-29T11:45:46.381Z,540.00
2023-08-29T11:46:32.206Z,528.75
2023-08-29T11:47:32.131Z,523.13
2023-08-29T11:48:32.191Z,466.88
2023-08-29T11:49:32.067Z,506.25
2023-08-29T11:50:32.198Z,506.25
2023-08-29T11:51:32.047Z,489.38
2023-08-29T11:52:32.135Z,455.63
2023-08-29T11:53:32.008Z,455.63
2023-08-29T11:54:32.125Z,455.63
2023-08-29T11:55:31.962Z,450.00
2023-08-29T11:56:32.037Z,444.38
2023-08-29T11:57:31.927Z,444.38
2023-08-29T11:58:32.055Z,455.63
2023-08-29T11:59:31.910Z,416.25
2023-08-29T12:00:31.968Z,421.88
2023-08-29T12:01:31.929Z,483.75
2023-08-29T12:02:32.067Z,500.63
2023-08-29T12:03:31.861Z,489.38
2023-08-29T12:04:31.992Z,506.25
2023-08-29T12:05:31.838Z,511.88
2023-08-29T12:06:31.906Z,523.13
2023-08-29T12:07:31.780Z,523.13
2023-08-29T12:08:31.924Z,523.13
2023-08-29T12:09:31.770Z,511.88
2023-08-29T12:10:31.833Z,528.75
2023-08-29T12:11:31.719Z,472.50
2023-08-29T12:12:31.861Z,478.13
2023-08-29T12:13:31.689Z,433.13
2023-08-29T12:14:31.755Z,433.13
2023-08-29T12:16:31.798Z,410.63
2023-08-29T12:17:31.792Z,388.13
2023-08-29T12:18:31.686Z,343.13
2023-08-29T12:19:31.605Z,315.00
2023-08-29T12:20:31.720Z,292.50
2023-08-29T12:21:31.577Z,275.63
2023-08-29T12:22:31.630Z,264.38
2023-08-29T12:23:31.544Z,253.13
2023-08-29T12:24:31.802Z,241.88
2023-08-29T12:25:31.502Z,230.63
2023-08-29T12:26:31.641Z,236.25
2023-08-29T12:27:31.486Z,303.75
2023-08-29T12:28:31.556Z,331.88
2023-08-29T12:29:31.464Z,337.50
2023-08-29T12:30:31.667Z,320.63
2023-08-29T12:31:31.503Z,348.75
2023-08-29T12:32:32.972Z,376.88
2023-08-29T12:33:33.421Z,405.00
2023-08-29T12:34:32.437Z,360.00
2023-08-29T12:35:31.366Z,405.00
2023-08-29T12:36:31.426Z,455.63
2023-08-29T12:37:31.334Z,495.00
2023-08-29T12:38:31.420Z,495.00
2023-08-29T12:39:31.309Z,489.38
2023-08-29T12:40:31.439Z,427.50
2023-08-29T12:41:31.273Z,450.00
2023-08-29T12:42:31.350Z,483.75
2023-08-29T12:43:31.360Z,393.75
2023-08-29T12:44:31.248Z,354.38
2023-08-29T12:45:33.253Z,320.63
2023-08-29T12:46:31.263Z,281.25
2023-08-29T12:47:31.354Z,253.13
2023-08-29T12:48:31.170Z,230.63
2023-08-29T12:49:31.305Z,230.63
2023-08-29T12:50:31.144Z,320.63
2023-08-29T12:51:31.212Z,270.00